sensor_id;sensor_type;location;lat;lon;timestamp;pressure;altitude;pressure_sealevel;temperature;humidity
14295;BME280;7231;59.370;18.016;2023-03-16T00:01:05;100851.03;;;-0.98;63.11
14295;BME280;7231;59.370;18.016;2023-03-16T00:03:33;100867.25;;;-0.99;63.45
14295;BME280;7231;59.370;18.016;2023-03-16T00:06:02;100868.81;;;-1.01;63.41
14295;BME280;7231;59.370;18.016;2023-03-16T00:08:32;100866.13;;;-1.03;63.69
14295;BME280;7231;59.370;18.016;2023-03-16T00:11:01;100878.78;;;-1.06;63.56
14295;BME280;7231;59.370;18.016;2023-03-16T00:13:29;100824.56;;;-1.42;63.85
14295;BME280;7231;59.370;18.016;2023-03-16T00:15:59;100799.63;;;-1.55;63.84
14295;BME280;7231;59.370;18.016;2023-03-16T00:18:28;100880.88;;;-1.12;63.89
14295;BME280;7231;59.370;18.016;2023-03-16T00:20:58;100882.44;;;-1.14;63.71
14295;BME280;7231;59.370;18.016;2023-03-16T00:23:28;100842.41;;;-1.67;63.98
14295;BME280;7231;59.370;18.016;2023-03-16T00:25:58;100896.63;;;-1.19;64.21
14295;BME280;7231;59.370;18.016;2023-03-16T00:28:29;100901.66;;;-1.20;63.99
14295;BME280;7231;59.370;18.016;2023-03-16T00:31:00;100827.88;;;-1.67;64.17
14295;BME280;7231;59.370;18.016;2023-03-16T00:33:28;100827.28;;;-1.74;64.05
14295;BME280;7231;59.370;18.016;2023-03-16T00:36:01;100906.00;;;-1.31;64.41
14295;BME280;7231;59.370;18.016;2023-03-16T00:38:31;100872.38;;;-1.56;64.40
14295;BME280;7231;59.370;18.016;2023-03-16T00:41:03;100905.88;;;-1.33;64.66
14295;BME280;7231;59.370;18.016;2023-03-16T00:43:32;100909.13;;;-1.35;64.65
14295;BME280;7231;59.370;18.016;2023-03-16T00:46:07;100835.53;;;-1.78;64.60
14295;BME280;7231;59.370;18.016;2023-03-16T00:48:36;100916.50;;;-1.40;64.87
14295;BME280;7231;59.370;18.016;2023-03-16T00:51:08;100917.94;;;-1.43;64.76
14295;BME280;7231;59.370;18.016;2023-03-16T00:53:40;100928.22;;;-1.43;65.05
14295;BME280;7231;59.370;18.016;2023-03-16T00:56:11;100924.75;;;-1.44;65.14
14295;BME280;7231;59.370;18.016;2023-03-16T00:58:40;100905.69;;;-1.57;65.10
14295;BME280;7231;59.370;18.016;2023-03-16T01:01:10;100932.00;;;-1.50;65.27
14295;BME280;7231;59.370;18.016;2023-03-16T01:03:39;100915.97;;;-1.57;65.15
14295;BME280;7231;59.370;18.016;2023-03-16T01:06:10;100926.38;;;-1.56;65.64
14295;BME280;7231;59.370;18.016;2023-03-16T01:08:38;100933.84;;;-1.59;65.62
14295;BME280;7231;59.370;18.016;2023-03-16T01:11:10;100938.88;;;-1.60;65.75
14295;BME280;7231;59.370;18.016;2023-03-16T01:13:39;100937.88;;;-1.63;65.68
14295;BME280;7231;59.370;18.016;2023-03-16T01:16:07;100945.56;;;-1.63;65.40
14295;BME280;7231;59.370;18.016;2023-03-16T01:18:36;100947.13;;;-1.65;65.88
14295;BME280;7231;59.370;18.016;2023-03-16T01:21:05;100955.63;;;-1.66;65.96
14295;BME280;7231;59.370;18.016;2023-03-16T01:23:35;100965.66;;;-1.69;65.86
14295;BME280;7231;59.370;18.016;2023-03-16T01:26:03;100778.25;;;-2.76;66.12
14295;BME280;7231;59.370;18.016;2023-03-16T01:28:33;100950.31;;;-1.79;66.48
14295;BME280;7231;59.370;18.016;2023-03-16T01:31:03;100974.16;;;-1.70;66.58
14295;BME280;7231;59.370;18.016;2023-03-16T01:33:33;100890.69;;;-2.29;66.97
14295;BME280;7231;59.370;18.016;2023-03-16T01:36:03;100987.06;;;-1.80;67.32
14295;BME280;7231;59.370;18.016;2023-03-16T01:38:31;100974.78;;;-1.94;67.41
14295;BME280;7231;59.370;18.016;2023-03-16T01:41:00;100993.66;;;-1.93;67.71
14295;BME280;7231;59.370;18.016;2023-03-16T01:43:30;100998.44;;;-1.98;67.80
14295;BME280;7231;59.370;18.016;2023-03-16T01:46:16;100987.44;;;-2.07;67.95
14295;BME280;7231;59.370;18.016;2023-03-16T01:48:54;101003.88;;;-2.05;67.71
14295;BME280;7231;59.370;18.016;2023-03-16T01:51:25;101013.91;;;-2.08;67.70
14295;BME280;7231;59.370;18.016;2023-03-16T01:53:57;101021.72;;;-2.07;67.91
14295;BME280;7231;59.370;18.016;2023-03-16T01:56:28;101015.69;;;-2.07;67.96
14295;BME280;7231;59.370;18.016;2023-03-16T01:59:03;101028.41;;;-2.09;68.13
14295;BME280;7231;59.370;18.016;2023-03-16T02:01:34;101002.63;;;-2.20;68.20
14295;BME280;7231;59.370;18.016;2023-03-16T02:04:11;101036.25;;;-2.07;68.51
14295;BME280;7231;59.370;18.016;2023-03-16T02:06:41;101039.59;;;-2.08;68.31
14295;BME280;7231;59.370;18.016;2023-03-16T02:09:10;101050.38;;;-2.12;68.60
14295;BME280;7231;59.370;18.016;2023-03-16T02:11:38;101051.81;;;-2.16;68.79
14295;BME280;7231;59.370;18.016;2023-03-16T02:14:09;101057.47;;;-2.20;68.99
14295;BME280;7231;59.370;18.016;2023-03-16T02:16:40;101011.44;;;-2.49;68.73
14295;BME280;7231;59.370;18.016;2023-03-16T02:19:13;101056.97;;;-2.26;69.16
14295;BME280;7231;59.370;18.016;2023-03-16T02:21:48;101056.84;;;-2.28;69.11
14295;BME280;7231;59.370;18.016;2023-03-16T02:24:20;101068.66;;;-2.30;69.39
14295;BME280;7231;59.370;18.016;2023-03-16T02:26:52;101068.66;;;-2.30;69.31
14295;BME280;7231;59.370;18.016;2023-03-16T02:29:40;101072.63;;;-2.33;69.59
14295;BME280;7231;59.370;18.016;2023-03-16T02:32:09;101078.56;;;-2.34;69.50
14295;BME280;7231;59.370;18.016;2023-03-16T02:34:38;101093.19;;;-2.33;69.73
14295;BME280;7231;59.370;18.016;2023-03-16T02:37:07;101089.72;;;-2.34;69.69
14295;BME280;7231;59.370;18.016;2023-03-16T02:39:35;101093.31;;;-2.32;69.99
14295;BME280;7231;59.370;18.016;2023-03-16T02:42:04;101097.41;;;-2.34;70.04
14295;BME280;7231;59.370;18.016;2023-03-16T02:44:34;101066.38;;;-2.47;69.90
14295;BME280;7231;59.370;18.016;2023-03-16T02:47:12;101070.22;;;-2.52;70.04
14295;BME280;7231;59.370;18.016;2023-03-16T02:49:44;101103.84;;;-2.39;70.19
14295;BME280;7231;59.370;18.016;2023-03-16T02:52:13;101052.81;;;-2.66;70.22
14295;BME280;7231;59.370;18.016;2023-03-16T02:54:41;101095.00;;;-2.42;70.55
14295;BME280;7231;59.370;18.016;2023-03-16T02:57:09;101100.00;;;-2.44;70.56
14295;BME280;7231;59.370;18.016;2023-03-16T02:59:37;101104.09;;;-2.46;70.36
14295;BME280;7231;59.370;18.016;2023-03-16T03:02:07;101104.88;;;-2.47;70.66
14295;BME280;7231;59.370;18.016;2023-03-16T03:04:36;101108.97;;;-2.49;70.84
14295;BME280;7231;59.370;18.016;2023-03-16T03:07:04;101114.75;;;-2.51;70.70
14295;BME280;7231;59.370;18.016;2023-03-16T03:09:32;101122.22;;;-2.54;70.78
14295;BME280;7231;59.370;18.016;2023-03-16T03:12:00;101128.75;;;-2.58;70.80
14295;BME280;7231;59.370;18.016;2023-03-16T03:14:28;101139.78;;;-2.59;70.87
14295;BME280;7231;59.370;18.016;2023-03-16T03:16:56;101145.47;;;-2.63;71.21
14295;BME280;7231;59.370;18.016;2023-03-16T03:19:25;101148.81;;;-2.64;71.50
14295;BME280;7231;59.370;18.016;2023-03-16T03:21:53;101139.56;;;-2.72;70.97
14295;BME280;7231;59.370;18.016;2023-03-16T03:24:22;101114.88;;;-2.90;71.35
14295;BME280;7231;59.370;18.016;2023-03-16T03:26:50;101154.97;;;-2.62;71.38
14295;BME280;7231;59.370;18.016;2023-03-16T03:29:18;101130.56;;;-2.77;71.34
14295;BME280;7231;59.370;18.016;2023-03-16T03:31:46;101159.19;;;-2.63;71.75
14295;BME280;7231;59.370;18.016;2023-03-16T03:34:14;101160.88;;;-2.63;71.71
14295;BME280;7231;59.370;18.016;2023-03-16T03:36:44;101163.44;;;-2.63;71.36
14295;BME280;7231;59.370;18.016;2023-03-16T03:39:11;101165.22;;;-2.62;71.35
14295;BME280;7231;59.370;18.016;2023-03-16T03:41:39;101173.69;;;-2.63;71.58
14295;BME280;7231;59.370;18.016;2023-03-16T03:44:07;101170.09;;;-2.65;71.58
14295;BME280;7231;59.370;18.016;2023-03-16T03:46:36;101179.47;;;-2.66;71.46
14295;BME280;7231;59.370;18.016;2023-03-16T03:49:04;101175.88;;;-2.68;71.63
14295;BME280;7231;59.370;18.016;2023-03-16T03:51:32;101187.81;;;-2.68;71.81
14295;BME280;7231;59.370;18.016;2023-03-16T03:54:02;101187.69;;;-2.70;71.52
14295;BME280;7231;59.370;18.016;2023-03-16T03:56:30;101147.44;;;-3.00;71.69
14295;BME280;7231;59.370;18.016;2023-03-16T03:58:58;101193.06;;;-2.77;71.79
14295;BME280;7231;59.370;18.016;2023-03-16T04:01:26;101202.94;;;-2.71;71.80
14295;BME280;7231;59.370;18.016;2023-03-16T04:03:53;101186.75;;;-2.80;72.01
14295;BME280;7231;59.370;18.016;2023-03-16T04:06:22;101205.25;;;-2.74;71.60
14295;BME280;7231;59.370;18.016;2023-03-16T04:08:49;101209.47;;;-2.75;71.94
14295;BME280;7231;59.370;18.016;2023-03-16T04:11:21;101217.03;;;-2.76;71.70
14295;BME280;7231;59.370;18.016;2023-03-16T04:13:50;101172.06;;;-3.02;72.14
14295;BME280;7231;59.370;18.016;2023-03-16T04:16:19;101187.47;;;-3.02;72.15
14295;BME280;7231;59.370;18.016;2023-03-16T04:18:47;101218.56;;;-2.78;72.42
14295;BME280;7231;59.370;18.016;2023-03-16T04:21:16;101175.13;;;-3.06;72.41
14295;BME280;7231;59.370;18.016;2023-03-16T04:23:44;101225.25;;;-2.80;72.21
14295;BME280;7231;59.370;18.016;2023-03-16T04:26:12;101224.34;;;-2.81;72.14
14295;BME280;7231;59.370;18.016;2023-03-16T04:28:41;101225.88;;;-2.83;72.38
14295;BME280;7231;59.370;18.016;2023-03-16T04:31:09;101226.50;;;-2.85;72.65
14295;BME280;7231;59.370;18.016;2023-03-16T04:33:38;101230.75;;;-2.86;72.87
14295;BME280;7231;59.370;18.016;2023-03-16T04:36:08;101229.84;;;-2.86;72.57
14295;BME280;7231;59.370;18.016;2023-03-16T04:38:36;101230.63;;;-2.87;72.71
14295;BME280;7231;59.370;18.016;2023-03-16T04:41:05;101236.50;;;-2.88;72.76
14295;BME280;7231;59.370;18.016;2023-03-16T04:43:33;101242.28;;;-2.91;72.88
14295;BME280;7231;59.370;18.016;2023-03-16T04:46:04;101161.03;;;-3.40;72.88
14295;BME280;7231;59.370;18.016;2023-03-16T04:48:33;101244.44;;;-2.96;72.82
14295;BME280;7231;59.370;18.016;2023-03-16T04:51:03;101160.34;;;-3.47;73.02
14295;BME280;7231;59.370;18.016;2023-03-16T04:53:32;101255.19;;;-3.00;72.82
14295;BME280;7231;59.370;18.016;2023-03-16T04:56:00;101246.47;;;-3.02;73.06
14295;BME280;7231;59.370;18.016;2023-03-16T04:58:29;101251.59;;;-3.02;73.13
14295;BME280;7231;59.370;18.016;2023-03-16T05:00:57;101251.47;;;-3.03;72.94
14295;BME280;7231;59.370;18.016;2023-03-16T05:03:26;101214.66;;;-3.33;73.14
14295;BME280;7231;59.370;18.016;2023-03-16T05:05:55;101172.84;;;-3.61;72.95
14295;BME280;7231;59.370;18.016;2023-03-16T05:08:23;101268.75;;;-3.11;73.39
14295;BME280;7231;59.370;18.016;2023-03-16T05:10:50;101257.38;;;-3.23;73.30
14295;BME280;7231;59.370;18.016;2023-03-16T05:13:22;101272.81;;;-3.13;73.61
14295;BME280;7231;59.370;18.016;2023-03-16T05:15:50;101275.41;;;-3.13;73.30
14295;BME280;7231;59.370;18.016;2023-03-16T05:18:19;101282.31;;;-3.12;73.48
14295;BME280;7231;59.370;18.016;2023-03-16T05:20:50;101293.47;;;-3.11;73.68
14295;BME280;7231;59.370;18.016;2023-03-16T05:23:19;101299.50;;;-3.11;73.81
14295;BME280;7231;59.370;18.016;2023-03-16T05:25:47;101298.63;;;-3.11;73.55
14295;BME280;7231;59.370;18.016;2023-03-16T05:28:15;101299.66;;;-3.09;73.71
14295;BME280;7231;59.370;18.016;2023-03-16T05:30:43;101260.66;;;-3.34;74.01
14295;BME280;7231;59.370;18.016;2023-03-16T05:33:11;101311.56;;;-3.10;73.70
14295;BME280;7231;59.370;18.016;2023-03-16T05:35:39;101316.56;;;-3.11;73.89
14295;BME280;7231;59.370;18.016;2023-03-16T05:38:10;101313.25;;;-3.10;74.01
14295;BME280;7231;59.370;18.016;2023-03-16T05:40:38;101322.88;;;-3.08;74.06
14295;BME280;7231;59.370;18.016;2023-03-16T05:43:06;101322.09;;;-3.07;73.84
14295;BME280;7231;59.370;18.016;2023-03-16T05:45:34;101323.91;;;-3.06;73.97
14295;BME280;7231;59.370;18.016;2023-03-16T05:48:02;101332.63;;;-3.04;74.08
14295;BME280;7231;59.370;18.016;2023-03-16T05:50:32;101331.75;;;-3.04;74.27
14295;BME280;7231;59.370;18.016;2023-03-16T05:53:00;101317.47;;;-3.11;74.22
14295;BME280;7231;59.370;18.016;2023-03-16T05:55:29;101286.09;;;-3.27;74.21
14295;BME280;7231;59.370;18.016;2023-03-16T05:57:58;101324.47;;;-3.00;74.30
14295;BME280;7231;59.370;18.016;2023-03-16T06:00:26;101316.22;;;-3.06;74.79
14295;BME280;7231;59.370;18.016;2023-03-16T06:02:55;101338.72;;;-2.93;74.52
14295;BME280;7231;59.370;18.016;2023-03-16T06:05:23;101339.91;;;-2.89;74.41
14295;BME280;7231;59.370;18.016;2023-03-16T06:07:54;101341.22;;;-2.84;74.49
14295;BME280;7231;59.370;18.016;2023-03-16T06:10:22;101351.75;;;-2.81;74.44
14295;BME280;7231;59.370;18.016;2023-03-16T06:12:53;101308.16;;;-3.00;74.63
14295;BME280;7231;59.370;18.016;2023-03-16T06:15:22;101360.41;;;-2.71;74.67
14295;BME280;7231;59.370;18.016;2023-03-16T06:17:52;101361.56;;;-2.67;74.57
14295;BME280;7231;59.370;18.016;2023-03-16T06:20:20;101369.81;;;-2.61;74.61
14295;BME280;7231;59.370;18.016;2023-03-16T06:22:48;101377.75;;;-2.58;74.42
14295;BME280;7231;59.370;18.016;2023-03-16T06:25:16;101375.47;;;-2.55;74.58
14295;BME280;7231;59.370;18.016;2023-03-16T06:27:44;101381.00;;;-2.50;74.21
14295;BME280;7231;59.370;18.016;2023-03-16T06:30:15;101379.75;;;-2.45;74.29
14295;BME280;7231;59.370;18.016;2023-03-16T06:32:43;101386.94;;;-2.41;74.25
14295;BME280;7231;59.370;18.016;2023-03-16T06:35:12;101355.56;;;-2.57;73.98
14295;BME280;7231;59.370;18.016;2023-03-16T06:37:40;101390.94;;;-2.35;74.57
14295;BME280;7231;59.370;18.016;2023-03-16T06:40:09;101365.09;;;-2.46;74.27
14295;BME280;7231;59.370;18.016;2023-03-16T06:42:37;101392.41;;;-2.18;74.36
14295;BME280;7231;59.370;18.016;2023-03-16T06:45:06;101399.41;;;-1.97;75.95
14295;BME280;7231;59.370;18.016;2023-03-16T06:47:36;101357.44;;;-1.67;77.30
14295;BME280;7231;59.370;18.016;2023-03-16T06:50:05;101384.53;;;-0.89;76.96
14295;BME280;7231;59.370;18.016;2023-03-16T06:52:34;101398.25;;;-0.04;76.43
14295;BME280;7231;59.370;18.016;2023-03-16T06:55:02;101405.31;;;0.54;75.24
14295;BME280;7231;59.370;18.016;2023-03-16T06:57:30;101407.78;;;0.86;73.87
14295;BME280;7231;59.370;18.016;2023-03-16T06:59:58;101366.22;;;0.71;72.85
14295;BME280;7231;59.370;18.016;2023-03-16T07:02:28;101426.69;;;1.08;72.90
14295;BME280;7231;59.370;18.016;2023-03-16T07:04:59;101432.31;;;1.26;73.99
14295;BME280;7231;59.370;18.016;2023-03-16T07:07:27;101438.19;;;1.47;74.63
14295;BME280;7231;59.370;18.016;2023-03-16T07:09:55;101436.16;;;1.66;74.17
14295;BME280;7231;59.370;18.016;2023-03-16T07:12:23;101436.94;;;1.77;73.25
14295;BME280;7231;59.370;18.016;2023-03-16T07:14:51;101433.53;;;1.89;72.23
14295;BME280;7231;59.370;18.016;2023-03-16T07:17:19;101446.75;;;2.17;72.85
14295;BME280;7231;59.370;18.016;2023-03-16T07:19:47;101449.56;;;2.57;73.25
14295;BME280;7231;59.370;18.016;2023-03-16T07:22:17;101448.16;;;2.87;72.49
14295;BME280;7231;59.370;18.016;2023-03-16T07:24:45;101455.50;;;3.19;71.84
14295;BME280;7231;59.370;18.016;2023-03-16T07:27:13;101449.38;;;3.56;70.49
14295;BME280;7231;59.370;18.016;2023-03-16T07:29:40;101453.66;;;3.96;69.77
14295;BME280;7231;59.370;18.016;2023-03-16T07:32:09;101457.31;;;4.26;68.41
14295;BME280;7231;59.370;18.016;2023-03-16T07:34:37;101458.66;;;4.47;67.73
14295;BME280;7231;59.370;18.016;2023-03-16T07:37:05;101457.66;;;4.73;67.03
14295;BME280;7231;59.370;18.016;2023-03-16T07:39:35;101458.72;;;5.19;65.82
14295;BME280;7231;59.370;18.016;2023-03-16T07:42:04;101457.34;;;5.55;65.09
14295;BME280;7231;59.370;18.016;2023-03-16T07:44:31;101458.38;;;5.88;64.45
14295;BME280;7231;59.370;18.016;2023-03-16T07:46:59;101470.78;;;6.23;62.25
14295;BME280;7231;59.370;18.016;2023-03-16T07:49:28;101463.59;;;6.50;61.67
14295;BME280;7231;59.370;18.016;2023-03-16T07:51:55;101385.19;;;6.29;60.05
14295;BME280;7231;59.370;18.016;2023-03-16T07:54:23;101472.88;;;6.94;58.79
14295;BME280;7231;59.370;18.016;2023-03-16T07:56:53;101473.69;;;7.09;58.40
14295;BME280;7231;59.370;18.016;2023-03-16T07:59:21;101475.16;;;7.20;57.24
14295;BME280;7231;59.370;18.016;2023-03-16T08:01:48;101479.50;;;7.37;56.63
14295;BME280;7231;59.370;18.016;2023-03-16T08:04:17;101456.19;;;7.40;55.58
14295;BME280;7231;59.370;18.016;2023-03-16T08:06:45;101486.88;;;7.80;54.85
14295;BME280;7231;59.370;18.016;2023-03-16T08:09:13;101441.75;;;7.65;54.13
14295;BME280;7231;59.370;18.016;2023-03-16T08:11:42;101492.59;;;8.08;53.55
14295;BME280;7231;59.370;18.016;2023-03-16T08:14:11;101496.78;;;8.23;52.57
14295;BME280;7231;59.370;18.016;2023-03-16T08:16:39;101494.16;;;8.23;52.55
14295;BME280;7231;59.370;18.016;2023-03-16T08:19:07;101475.78;;;8.21;51.45
14295;BME280;7231;59.370;18.016;2023-03-16T08:21:36;101474.91;;;8.21;51.27
14295;BME280;7231;59.370;18.016;2023-03-16T08:24:24;101372.94;;;7.63;50.78
14295;BME280;7231;59.370;18.016;2023-03-16T08:26:52;101508.34;;;8.45;50.47
14295;BME280;7231;59.370;18.016;2023-03-16T08:29:23;101497.94;;;8.65;49.71
14295;BME280;7231;59.370;18.016;2023-03-16T08:31:52;101511.50;;;8.75;49.39
14295;BME280;7231;59.370;18.016;2023-03-16T08:34:20;101518.72;;;9.00;49.35
14295;BME280;7231;59.370;18.016;2023-03-16T08:36:48;101520.16;;;9.32;48.57
14295;BME280;7231;59.370;18.016;2023-03-16T08:39:16;101464.41;;;9.14;48.08
14295;BME280;7231;59.370;18.016;2023-03-16T08:41:44;101525.41;;;9.72;47.51
14295;BME280;7231;59.370;18.016;2023-03-16T08:44:13;101526.03;;;9.88;46.99
14295;BME280;7231;59.370;18.016;2023-03-16T08:46:43;101502.72;;;9.94;46.17
14295;BME280;7231;59.370;18.016;2023-03-16T08:49:11;101528.34;;;10.22;45.88
14295;BME280;7231;59.370;18.016;2023-03-16T08:51:39;101532.53;;;10.39;45.47
14295;BME280;7231;59.370;18.016;2023-03-16T08:54:11;101471.06;;;10.31;44.68
14295;BME280;7231;59.370;18.016;2023-03-16T08:56:39;101537.97;;;10.90;44.44
14295;BME280;7231;59.370;18.016;2023-03-16T08:59:07;101542.13;;;11.07;44.17
14295;BME280;7231;59.370;18.016;2023-03-16T09:01:55;101541.28;;;11.08;43.91
14295;BME280;7231;59.370;18.016;2023-03-16T09:04:24;101543.88;;;10.84;42.88
14295;BME280;7231;59.370;18.016;2023-03-16T09:06:54;101549.94;;;10.37;43.00
14295;BME280;7231;59.370;18.016;2023-03-16T09:09:34;101564.75;;;10.16;43.04
14295;BME280;7231;59.370;18.016;2023-03-16T09:12:03;101566.34;;;9.70;42.67
14295;BME280;7231;59.370;18.016;2023-03-16T09:14:31;101562.38;;;9.21;43.54
14295;BME280;7231;59.370;18.016;2023-03-16T09:17:01;101583.72;;;9.30;43.13
14295;BME280;7231;59.370;18.016;2023-03-16T09:19:29;101584.09;;;9.37;43.53
14295;BME280;7231;59.370;18.016;2023-03-16T09:22:16;101578.44;;;9.88;44.04
14295;BME280;7231;59.370;18.016;2023-03-16T09:24:45;101581.34;;;10.35;43.92
14295;BME280;7231;59.370;18.016;2023-03-16T09:27:14;101585.25;;;9.84;41.83
14295;BME280;7231;59.370;18.016;2023-03-16T09:29:42;101583.53;;;9.44;43.28
14295;BME280;7231;59.370;18.016;2023-03-16T09:32:12;101579.69;;;9.76;43.76
14295;BME280;7231;59.370;18.016;2023-03-16T09:34:40;101586.38;;;10.31;43.85
14295;BME280;7231;59.370;18.016;2023-03-16T09:37:09;101582.94;;;10.77;43.18
14295;BME280;7231;59.370;18.016;2023-03-16T09:39:37;101596.94;;;11.22;42.50
14295;BME280;7231;59.370;18.016;2023-03-16T09:42:13;101530.28;;;10.94;40.66
14295;BME280;7231;59.370;18.016;2023-03-16T09:44:55;101596.28;;;10.60;40.99
14295;BME280;7231;59.370;18.016;2023-03-16T09:47:28;101611.13;;;10.37;40.84
14295;BME280;7231;59.370;18.016;2023-03-16T09:49:59;101609.50;;;9.59;41.15
14295;BME280;7231;59.370;18.016;2023-03-16T09:52:34;101611.22;;;9.59;41.76
14295;BME280;7231;59.370;18.016;2023-03-16T09:55:11;101542.75;;;9.70;42.41
14295;BME280;7231;59.370;18.016;2023-03-16T09:57:44;101616.28;;;10.79;42.32
14295;BME280;7231;59.370;18.016;2023-03-16T10:00:16;101611.44;;;11.12;41.18
14295;BME280;7231;59.370;18.016;2023-03-16T10:03:10;101626.56;;;10.52;40.54
14295;BME280;7231;59.370;18.016;2023-03-16T10:05:44;101622.88;;;10.69;42.04
14295;BME280;7231;59.370;18.016;2023-03-16T10:08:15;101617.63;;;11.14;41.86
14295;BME280;7231;59.370;18.016;2023-03-16T10:11:04;101629.47;;;11.49;40.88
14295;BME280;7231;59.370;18.016;2023-03-16T10:13:39;101627.72;;;11.74;40.80
14295;BME280;7231;59.370;18.016;2023-03-16T10:16:11;101607.38;;;11.92;39.83
14295;BME280;7231;59.370;18.016;2023-03-16T10:18:45;101510.53;;;11.28;39.24
14295;BME280;7231;59.370;18.016;2023-03-16T10:21:14;101638.50;;;11.80;39.59
14295;BME280;7231;59.370;18.016;2023-03-16T10:23:45;101636.06;;;11.86;39.44
14295;BME280;7231;59.370;18.016;2023-03-16T10:26:17;101642.59;;;11.49;39.20
14295;BME280;7231;59.370;18.016;2023-03-16T10:28:47;101646.09;;;11.03;39.48
14295;BME280;7231;59.370;18.016;2023-03-16T10:31:16;101645.66;;;10.70;39.08
14295;BME280;7231;59.370;18.016;2023-03-16T10:33:50;101651.75;;;10.49;40.57
14295;BME280;7231;59.370;18.016;2023-03-16T10:36:24;101648.78;;;10.83;40.16
14295;BME280;7231;59.370;18.016;2023-03-16T10:38:57;101653.50;;;11.14;40.37
14295;BME280;7231;59.370;18.016;2023-03-16T10:41:28;101653.06;;;11.25;39.94
14295;BME280;7231;59.370;18.016;2023-03-16T10:43:58;101656.16;;;11.37;39.24
14295;BME280;7231;59.370;18.016;2023-03-16T10:46:37;101606.56;;;10.77;38.82
14295;BME280;7231;59.370;18.016;2023-03-16T10:49:18;101662.03;;;11.08;39.85
14295;BME280;7231;59.370;18.016;2023-03-16T10:51:46;101587.41;;;10.79;40.09
14295;BME280;7231;59.370;18.016;2023-03-16T10:54:26;101659.78;;;11.41;39.00
14295;BME280;7231;59.370;18.016;2023-03-16T10:56:55;101674.59;;;11.17;39.76
14295;BME280;7231;59.370;18.016;2023-03-16T10:59:29;101674.13;;;11.04;39.45
14295;BME280;7231;59.370;18.016;2023-03-16T11:02:01;101677.88;;;11.33;40.02
14295;BME280;7231;59.370;18.016;2023-03-16T11:04:32;101611.97;;;11.50;39.76
14295;BME280;7231;59.370;18.016;2023-03-16T11:07:01;101666.09;;;11.92;39.24
14295;BME280;7231;59.370;18.016;2023-03-16T11:09:31;101680.41;;;12.00;38.60
14295;BME280;7231;59.370;18.016;2023-03-16T11:12:00;101685.66;;;12.00;38.29
14295;BME280;7231;59.370;18.016;2023-03-16T11:14:42;101546.16;;;11.21;38.04
14295;BME280;7231;59.370;18.016;2023-03-16T11:17:13;101656.47;;;11.69;37.96
14295;BME280;7231;59.370;18.016;2023-03-16T11:19:50;101689.53;;;11.86;37.87
14295;BME280;7231;59.370;18.016;2023-03-16T11:22:22;101686.66;;;12.04;37.77
14295;BME280;7231;59.370;18.016;2023-03-16T11:24:54;101674.28;;;11.54;38.04
14295;BME280;7231;59.370;18.016;2023-03-16T11:27:29;101695.97;;;11.72;37.77
14295;BME280;7231;59.370;18.016;2023-03-16T11:30:08;101684.44;;;11.91;37.01
14295;BME280;7231;59.370;18.016;2023-03-16T11:32:43;101698.94;;;11.57;37.97
14295;BME280;7231;59.370;18.016;2023-03-16T11:35:17;101662.50;;;11.20;37.23
14295;BME280;7231;59.370;18.016;2023-03-16T11:37:53;101558.38;;;10.52;37.38
14295;BME280;7231;59.370;18.016;2023-03-16T11:40:34;101714.66;;;11.33;37.06
14295;BME280;7231;59.370;18.016;2023-03-16T11:43:12;101711.88;;;11.08;36.98
14295;BME280;7231;59.370;18.016;2023-03-16T11:45:49;101725.25;;;10.71;37.14
14295;BME280;7231;59.370;18.016;2023-03-16T11:48:28;101709.59;;;10.31;37.23
14295;BME280;7231;59.370;18.016;2023-03-16T11:51:04;101719.63;;;10.20;37.11
14295;BME280;7231;59.370;18.016;2023-03-16T11:53:44;101707.09;;;10.15;37.77
14295;BME280;7231;59.370;18.016;2023-03-16T11:56:21;101718.84;;;10.23;37.41
14295;BME280;7231;59.370;18.016;2023-03-16T11:58:59;101722.28;;;10.43;38.16
14295;BME280;7231;59.370;18.016;2023-03-16T12:01:40;101696.47;;;10.72;37.34
14295;BME280;7231;59.370;18.016;2023-03-16T12:04:38;101675.22;;;10.46;37.00
14295;BME280;7231;59.370;18.016;2023-03-16T12:07:23;101720.97;;;10.73;36.78
14295;BME280;7231;59.370;18.016;2023-03-16T12:10:09;101728.19;;;10.79;36.52
14295;BME280;7231;59.370;18.016;2023-03-16T12:12:52;101739.44;;;10.97;37.20
14295;BME280;7231;59.370;18.016;2023-03-16T12:15:34;101680.00;;;10.33;36.84
14295;BME280;7231;59.370;18.016;2023-03-16T12:18:12;101732.78;;;10.63;37.48
14295;BME280;7231;59.370;18.016;2023-03-16T12:20:49;101709.50;;;10.50;37.35
14295;BME280;7231;59.370;18.016;2023-03-16T12:23:26;101731.16;;;11.09;37.82
14295;BME280;7231;59.370;18.016;2023-03-16T12:25:57;101686.09;;;11.65;37.49
14295;BME280;7231;59.370;18.016;2023-03-16T12:28:28;101674.00;;;12.43;36.33
14295;BME280;7231;59.370;18.016;2023-03-16T12:31:06;101727.97;;;13.11;35.32
14295;BME280;7231;59.370;18.016;2023-03-16T12:33:51;101733.09;;;13.33;34.37
14295;BME280;7231;59.370;18.016;2023-03-16T12:39:34;101746.69;;;12.92;34.06
14295;BME280;7231;59.370;18.016;2023-03-16T12:42:20;101730.78;;;12.89;33.95
14295;BME280;7231;59.370;18.016;2023-03-16T12:44:55;101746.94;;;13.01;34.04
14295;BME280;7231;59.370;18.016;2023-03-16T12:47:29;101754.59;;;12.66;33.72
14295;BME280;7231;59.370;18.016;2023-03-16T12:50:04;101743.41;;;12.99;34.46
14295;BME280;7231;59.370;18.016;2023-03-16T12:52:40;101736.00;;;13.71;33.76
14295;BME280;7231;59.370;18.016;2023-03-16T12:55:14;101750.75;;;14.26;33.38
14295;BME280;7231;59.370;18.016;2023-03-16T12:57:43;101716.47;;;14.57;32.87
14295;BME280;7231;59.370;18.016;2023-03-16T13:00:13;101759.09;;;14.41;32.33
14295;BME280;7231;59.370;18.016;2023-03-16T13:02:43;101721.53;;;13.57;32.33
14295;BME280;7231;59.370;18.016;2023-03-16T13:05:14;101763.91;;;13.09;32.79
14295;BME280;7231;59.370;18.016;2023-03-16T13:07:47;101743.06;;;13.44;32.75
14295;BME280;7231;59.370;18.016;2023-03-16T13:10:18;101753.22;;;13.88;32.88
14295;BME280;7231;59.370;18.016;2023-03-16T13:12:47;101757.13;;;14.66;33.00
14295;BME280;7231;59.370;18.016;2023-03-16T13:15:28;101762.84;;;15.56;32.19